createdAt,value
2017-02-20T00:00:36.577Z,0
2017-02-20T00:01:37.016Z,0
2017-02-20T00:02:36.540Z,0
2017-02-20T00:03:36.516Z,0
2017-02-20T00:04:36.475Z,0
2017-02-20T00:05:36.464Z,0
2017-02-20T00:06:36.049Z,0
2017-02-20T00:07:36.425Z,0
2017-02-20T00:08:36.411Z,0
2017-02-20T00:09:36.572Z,0
2017-02-20T00:10:36.367Z,0
2017-02-20T00:11:37.001Z,0
2017-02-20T00:12:36.324Z,0
2017-02-20T00:13:35.896Z,0
2017-02-20T00:14:36.247Z,0
2017-02-20T00:15:36.220Z,0
2017-02-20T00:16:35.807Z,0
2017-02-20T00:17:36.187Z,0
2017-02-20T00:18:35.401Z,0
2017-02-20T00:19:35.744Z,0
2017-02-20T00:20:35.736Z,0
2017-02-20T00:21:36.119Z,0
2017-02-20T00:22:36.069Z,0
2017-02-20T00:23:35.556Z,0
2017-02-20T00:24:35.616Z,0
2017-02-20T00:25:35.970Z,0
2017-02-20T00:26:35.954Z,0
2017-02-20T00:27:35.535Z,0
2017-02-20T00:28:35.918Z,0
2017-02-20T00:29:35.495Z,0
2017-02-20T00:30:36.075Z,0
2017-02-20T00:31:35.068Z,0
2017-02-20T00:32:35.799Z,0
2017-02-20T00:33:35.795Z,0
2017-02-20T00:34:35.390Z,0
2017-02-20T00:35:35.741Z,0
2017-02-20T00:36:35.726Z,0
2017-02-20T00:37:35.749Z,0
2017-02-20T00:38:34.890Z,0
2017-02-20T00:39:35.254Z,0
2017-02-20T00:40:35.248Z,0
2017-02-20T00:41:35.597Z,0
2017-02-20T00:42:35.195Z,0
2017-02-20T00:43:35.539Z,0
2017-02-20T00:44:34.762Z,0
2017-02-20T00:45:35.483Z,0
2017-02-20T00:46:35.077Z,0
2017-02-20T00:47:34.294Z,0
2017-02-20T00:48:35.451Z,0
2017-02-20T00:49:35.030Z,0
2017-02-20T00:50:34.994Z,0
2017-02-20T00:51:35.342Z,0
2017-02-20T00:52:34.959Z,0
2017-02-20T00:53:35.325Z,0
2017-02-20T00:54:35.284Z,0
2017-02-20T00:55:35.265Z,0
2017-02-20T00:56:34.095Z,0
2017-02-20T00:57:35.214Z,0
2017-02-20T00:58:35.170Z,0
2017-02-20T00:59:35.148Z,0
2017-02-20T01:00:35.135Z,0
2017-02-20T01:01:35.131Z,0
2017-02-20T01:02:35.086Z,0
2017-02-20T01:03:35.063Z,0
2017-02-20T01:04:35.036Z,0
2017-02-20T01:05:34.629Z,0
2017-02-20T01:06:35.625Z,0
2017-02-20T01:07:34.578Z,0
2017-02-20T01:08:34.935Z,0
2017-02-20T01:09:34.537Z,0
2017-02-20T01:10:34.509Z,0
2017-02-20T01:11:34.868Z,0
2017-02-20T01:12:34.466Z,0
2017-02-20T01:13:34.446Z,0
2017-02-20T01:14:34.795Z,0
2017-02-20T01:15:34.018Z,0
2017-02-20T01:16:34.356Z,0
2017-02-20T01:17:35.023Z,0
2017-02-20T01:18:34.706Z,0
2017-02-20T01:19:34.679Z,0
2017-02-20T01:20:34.302Z,0
2017-02-20T01:21:33.867Z,0
2017-02-20T01:22:33.847Z,0
2017-02-20T01:23:34.850Z,0
2017-02-20T01:24:34.597Z,0
2017-02-20T01:25:34.544Z,0
2017-02-20T01:26:34.515Z,0
2017-02-20T01:27:34.130Z,0
2017-02-20T01:28:34.454Z,0
2017-02-20T01:29:33.305Z,0
2017-02-20T01:30:34.432Z,0
2017-02-20T01:31:34.030Z,0
2017-02-20T01:32:34.400Z,0
2017-02-20T01:33:34.359Z,0
2017-02-20T01:34:33.928Z,0
2017-02-20T01:35:34.314Z,0
2017-02-20T01:36:33.899Z,0
2017-02-20T01:37:34.263Z,0
2017-02-20T01:38:33.852Z,0
2017-02-20T01:39:34.215Z,0
2017-02-20T01:40:34.172Z,0
2017-02-20T01:41:34.200Z,0
2017-02-20T01:42:33.770Z,0
2017-02-20T01:43:33.731Z,0
2017-02-20T01:44:34.079Z,0
2017-02-20T01:45:33.283Z,0
2017-02-20T01:46:34.073Z,0
2017-02-20T01:47:33.233Z,0
2017-02-20T01:48:33.992Z,0
2017-02-20T01:49:33.972Z,0
2017-02-20T01:50:33.557Z,0
2017-02-20T01:51:33.554Z,0
2017-02-20T01:52:33.902Z,0
2017-02-20T01:53:33.478Z,0
2017-02-20T01:54:33.846Z,0
2017-02-20T01:55:33.822Z,0
2017-02-20T01:56:33.420Z,0
2017-02-20T01:57:33.775Z,0
2017-02-20T01:58:33.376Z,0
2017-02-20T01:59:33.723Z,0
2017-02-20T02:00:33.692Z,0
2017-02-20T02:01:33.307Z,0
2017-02-20T02:02:33.282Z,0
2017-02-20T02:03:33.270Z,0
2017-02-20T02:04:33.615Z,0
2017-02-20T02:05:33.574Z,0
2017-02-20T02:06:33.562Z,0
2017-02-20T02:07:33.152Z,0
2017-02-20T02:08:33.977Z,0
2017-02-20T02:09:33.092Z,0
2017-02-20T02:10:33.457Z,0
2017-02-20T02:11:32.736Z,0
2017-02-20T02:12:33.415Z,0
2017-02-20T02:13:33.444Z,0
2017-02-20T02:14:32.970Z,0
2017-02-20T02:15:33.375Z,0
2017-02-20T02:16:33.325Z,0
2017-02-20T02:17:33.296Z,0
2017-02-20T02:18:33.275Z,0
2017-02-20T02:19:33.253Z,0
2017-02-20T02:20:32.513Z,0
2017-02-20T02:21:33.190Z,0
2017-02-20T02:22:32.417Z,0
2017-02-20T02:23:31.993Z,0
2017-02-20T02:24:33.128Z,0
2017-02-20T02:25:33.099Z,0
2017-02-20T02:26:32.683Z,0
2017-02-20T02:27:33.255Z,0
2017-02-20T02:28:32.640Z,0
2017-02-20T02:29:33.021Z,0
2017-02-20T02:30:32.975Z,0
2017-02-20T02:31:32.951Z,0
2017-02-20T02:32:32.572Z,0
2017-02-20T02:33:32.533Z,0
2017-02-20T02:34:32.932Z,0
2017-02-20T02:35:32.501Z,0
2017-02-20T02:36:32.465Z,0
2017-02-20T02:37:32.859Z,0
2017-02-20T02:38:32.437Z,0
2017-02-20T02:39:32.769Z,0
2017-02-20T02:40:32.748Z,0
2017-02-20T02:41:32.736Z,0
2017-02-20T02:42:32.686Z,0
2017-02-20T02:43:32.680Z,0
2017-02-20T02:44:32.655Z,0
2017-02-20T02:45:32.616Z,0
2017-02-20T02:46:31.833Z,0
2017-02-20T02:47:31.428Z,0
2017-02-20T02:48:32.549Z,0
2017-02-20T02:49:32.150Z,0
2017-02-20T02:50:32.508Z,0
2017-02-20T02:51:32.487Z,0
2017-02-20T02:52:32.076Z,0
2017-02-20T02:53:32.418Z,0
2017-02-20T02:54:32.224Z,0
2017-02-20T02:55:31.995Z,0
2017-02-20T02:56:32.368Z,0
2017-02-20T02:57:32.331Z,0
2017-02-20T02:58:32.314Z,0
2017-02-20T02:59:32.329Z,0
2017-02-20T03:00:32.332Z,0
2017-02-20T03:01:32.243Z,0
2017-02-20T03:02:32.579Z,0
2017-02-20T03:03:31.404Z,0
2017-02-20T03:04:32.223Z,0
2017-02-20T03:05:31.793Z,0
2017-02-20T03:06:32.165Z,0
2017-02-20T03:07:32.105Z,0
2017-02-20T03:08:32.068Z,0
2017-02-20T03:09:32.105Z,0
2017-02-20T03:10:31.640Z,0
2017-02-20T03:11:31.625Z,0
2017-02-20T03:12:31.971Z,0
2017-02-20T03:13:31.947Z,0
2017-02-20T03:14:31.545Z,0
2017-02-20T03:15:31.912Z,0
2017-02-20T03:16:31.945Z,0
2017-02-20T03:17:31.869Z,0
2017-02-20T03:18:31.837Z,0
2017-02-20T03:19:31.427Z,0
2017-02-20T03:20:31.460Z,0
2017-02-20T03:21:31.806Z,0
2017-02-20T03:22:31.739Z,0
2017-02-20T03:23:31.327Z,0
2017-02-20T03:24:31.697Z,0
2017-02-20T03:25:31.669Z,0
2017-02-20T03:26:31.646Z,0
2017-02-20T03:27:31.235Z,0
2017-02-20T03:28:31.252Z,0
2017-02-20T03:29:31.433Z,0
2017-02-20T03:30:31.786Z,0
2017-02-20T03:31:31.133Z,0
2017-02-20T03:32:31.104Z,0
2017-02-20T03:33:31.102Z,0
2017-02-20T03:34:31.069Z,0
2017-02-20T03:35:31.082Z,0
2017-02-20T03:36:31.411Z,0
2017-02-20T03:37:31.404Z,0
2017-02-20T03:38:30.968Z,0
2017-02-20T03:39:31.321Z,0
2017-02-20T03:40:31.359Z,0
2017-02-20T03:41:31.285Z,0
2017-02-20T03:42:30.865Z,0
2017-02-20T03:43:31.220Z,0
2017-02-20T03:44:30.821Z,0
2017-02-20T03:45:31.211Z,0
2017-02-20T03:46:31.202Z,0
2017-02-20T03:47:31.125Z,0
2017-02-20T03:48:31.145Z,0
2017-02-20T03:49:31.133Z,0
2017-02-20T03:50:31.066Z,0
2017-02-20T03:51:30.664Z,0
2017-02-20T03:52:31.015Z,0
2017-02-20T03:53:30.677Z,0
2017-02-20T03:54:31.015Z,0
2017-02-20T03:55:31.192Z,0
2017-02-20T03:56:30.929Z,0
2017-02-20T03:57:30.899Z,0
2017-02-20T03:58:30.867Z,0
2017-02-20T03:59:30.865Z,0
2017-02-20T04:00:30.886Z,0
2017-02-20T04:01:30.849Z,0
2017-02-20T04:02:30.813Z,0
2017-02-20T04:03:30.034Z,0
2017-02-20T04:04:30.723Z,0
2017-02-20T04:05:30.719Z,0
2017-02-20T04:06:30.684Z,0
2017-02-20T04:07:30.277Z,0
2017-02-20T04:08:30.627Z,0
2017-02-20T04:09:31.311Z,0
2017-02-20T04:10:30.218Z,0
2017-02-20T04:11:30.810Z,0
2017-02-20T04:12:30.149Z,0
2017-02-20T04:13:30.536Z,0
2017-02-20T04:14:30.559Z,0
2017-02-20T04:15:30.080Z,0
2017-02-20T04:16:30.442Z,0
2017-02-20T04:17:30.061Z,0
2017-02-20T04:18:29.626Z,0
2017-02-20T04:19:30.373Z,0
2017-02-20T04:20:29.979Z,0
2017-02-20T04:21:30.317Z,0
2017-02-20T04:22:30.327Z,0
2017-02-20T04:23:29.934Z,0
2017-02-20T04:24:30.307Z,0
2017-02-20T04:25:29.835Z,0
2017-02-20T04:26:30.226Z,0
2017-02-20T04:27:30.351Z,0
2017-02-20T04:28:30.230Z,0
2017-02-20T04:29:30.155Z,0
2017-02-20T04:30:30.021Z,0
2017-02-20T04:31:30.103Z,0
2017-02-20T04:32:30.101Z,0
2017-02-20T04:33:30.054Z,0
2017-02-20T04:34:29.638Z,0
2017-02-20T04:35:30.012Z,0
2017-02-20T04:36:29.612Z,0
2017-02-20T04:37:29.947Z,0
2017-02-20T04:38:29.601Z,0
2017-02-20T04:39:29.899Z,0
2017-02-20T04:40:29.511Z,0
2017-02-20T04:41:29.861Z,0
2017-02-20T04:42:29.843Z,0
2017-02-20T04:43:29.428Z,0
2017-02-20T04:44:29.803Z,0
2017-02-20T04:45:29.752Z,0
2017-02-20T04:46:29.742Z,0
2017-02-20T04:47:29.723Z,0
2017-02-20T04:48:29.308Z,0
2017-02-20T04:49:29.701Z,0
2017-02-20T04:50:29.636Z,0
2017-02-20T04:51:29.618Z,0
2017-02-20T04:52:29.594Z,0
2017-02-20T04:53:29.244Z,0
2017-02-20T04:54:29.547Z,0
2017-02-20T04:55:29.529Z,0
2017-02-20T04:56:29.127Z,0
2017-02-20T04:57:29.145Z,0
2017-02-20T04:58:29.443Z,0
2017-02-20T04:59:29.037Z,0
2017-02-20T05:00:28.256Z,0
2017-02-20T05:01:29.437Z,0
2017-02-20T05:02:29.397Z,0
2017-02-20T05:03:29.348Z,0
2017-02-20T05:04:28.934Z,0
2017-02-20T05:05:28.893Z,0
2017-02-20T05:06:29.261Z,0
2017-02-20T05:07:29.258Z,0
2017-02-20T05:08:29.230Z,0
2017-02-20T05:09:29.189Z,0
2017-02-20T05:10:29.161Z,0
2017-02-20T05:11:28.764Z,0
2017-02-20T05:12:29.161Z,0
2017-02-20T05:13:29.131Z,0
2017-02-20T05:14:28.701Z,0
2017-02-20T05:15:28.279Z,0
2017-02-20T05:16:29.020Z,0
2017-02-20T05:17:29.012Z,0
2017-02-20T05:18:28.982Z,0
2017-02-20T05:19:28.591Z,0
2017-02-20T05:20:28.550Z,0
2017-02-20T05:21:28.134Z,0
2017-02-20T05:22:28.513Z,0
2017-02-20T05:23:28.472Z,0
2017-02-20T05:24:28.471Z,0
2017-02-20T05:25:28.431Z,0
2017-02-20T05:26:28.424Z,0
2017-02-20T05:27:28.762Z,0
2017-02-20T05:28:28.740Z,0
2017-02-20T05:29:28.717Z,0
2017-02-20T05:30:28.792Z,0
2017-02-20T05:31:28.662Z,0
2017-02-20T05:32:28.311Z,0
2017-02-20T05:33:28.620Z,0
2017-02-20T05:34:28.223Z,0
2017-02-20T05:35:28.605Z,0
2017-02-20T05:36:28.583Z,0
2017-02-20T05:37:28.159Z,0
2017-02-20T05:38:28.514Z,0
2017-02-20T05:39:28.571Z,0
2017-02-20T05:40:28.095Z,0
2017-02-20T05:41:28.087Z,0
2017-02-20T05:42:28.407Z,0
2017-02-20T05:43:28.006Z,0
2017-02-20T05:44:27.999Z,0
2017-02-20T05:45:27.973Z,0
2017-02-20T05:46:27.549Z,0
2017-02-20T05:47:28.300Z,0
2017-02-20T05:48:28.290Z,0
2017-02-20T05:49:28.234Z,0
2017-02-20T05:50:28.256Z,0
2017-02-20T05:51:27.816Z,0
2017-02-20T05:52:27.798Z,0
2017-02-20T05:53:28.156Z,0
2017-02-20T05:54:28.136Z,0
2017-02-20T05:55:28.193Z,0
2017-02-20T05:56:27.696Z,0
2017-02-20T05:57:28.060Z,0
2017-02-20T05:58:28.032Z,0
2017-02-20T05:59:28.017Z,0
2017-02-20T06:00:28.015Z,0
2017-02-20T06:01:27.586Z,0
2017-02-20T06:02:27.993Z,0
2017-02-20T06:03:27.532Z,0
2017-02-20T06:04:27.134Z,0
2017-02-20T06:05:27.870Z,0
2017-02-20T06:06:27.087Z,0
2017-02-20T06:07:27.829Z,0
2017-02-20T06:08:27.416Z,0
2017-02-20T06:09:27.782Z,0
2017-02-20T06:10:27.356Z,0
2017-02-20T06:11:26.963Z,4
2017-02-20T06:12:27.954Z,4
2017-02-20T06:13:27.726Z,0
2017-02-20T06:14:26.898Z,4
2017-02-20T06:15:27.251Z,4
2017-02-20T06:16:27.602Z,8
2017-02-20T06:17:27.578Z,4
2017-02-20T06:18:27.571Z,8
2017-02-20T06:19:27.525Z,8
2017-02-20T06:20:27.986Z,8
2017-02-20T06:21:27.107Z,12
2017-02-20T06:22:27.468Z,8
2017-02-20T06:23:27.458Z,16
2017-02-20T06:24:27.026Z,16
2017-02-20T06:25:27.400Z,16
2017-02-20T06:26:26.995Z,20
2017-02-20T06:27:26.968Z,24
2017-02-20T06:28:27.320Z,24
2017-02-20T06:29:27.362Z,24
2017-02-20T06:30:28.082Z,32
2017-02-20T06:31:27.216Z,36
2017-02-20T06:32:26.832Z,36
2017-02-20T06:33:27.254Z,40
2017-02-20T06:34:27.415Z,52
2017-02-20T06:35:26.814Z,52
2017-02-20T06:36:27.127Z,72
2017-02-20T06:37:26.741Z,64
2017-02-20T06:38:26.695Z,72
2017-02-20T06:39:26.701Z,68
2017-02-20T06:40:26.656Z,84
2017-02-20T06:41:27.024Z,104
2017-02-20T06:42:26.700Z,84
2017-02-20T06:43:27.267Z,104
2017-02-20T06:44:27.062Z,120
2017-02-20T06:45:26.526Z,148
2017-02-20T06:46:26.885Z,144
2017-02-20T06:47:26.894Z,156
2017-02-20T06:48:26.465Z,180
2017-02-20T06:49:26.815Z,196
2017-02-20T06:50:26.043Z,212
2017-02-20T06:51:26.777Z,256
2017-02-20T06:52:26.374Z,264
2017-02-20T06:53:26.351Z,296
2017-02-20T06:54:26.315Z,292
2017-02-20T06:55:26.681Z,300
2017-02-20T06:56:26.266Z,316
2017-02-20T06:57:26.268Z,336
2017-02-20T06:58:26.616Z,380
2017-02-20T06:59:26.601Z,444
2017-02-20T07:00:26.576Z,356
2017-02-20T07:01:26.157Z,408
2017-02-20T07:02:26.521Z,388
2017-02-20T07:03:25.772Z,416
2017-02-20T07:04:26.477Z,432
2017-02-20T07:05:26.461Z,452
2017-02-20T07:06:26.434Z,452
2017-02-20T07:07:26.013Z,460
2017-02-20T07:08:25.616Z,500
2017-02-20T07:09:26.357Z,460
2017-02-20T07:10:26.325Z,620
2017-02-20T07:11:26.300Z,728
2017-02-20T07:12:25.919Z,804
2017-02-20T07:13:25.884Z,820
2017-02-20T07:14:25.855Z,660
2017-02-20T07:15:26.212Z,676
2017-02-20T07:16:26.194Z,776
2017-02-20T07:17:26.174Z,764
2017-02-20T07:18:25.750Z,784
2017-02-20T07:19:25.742Z,908
2017-02-20T07:20:26.094Z,860
2017-02-20T07:21:25.680Z,880
2017-02-20T07:22:25.655Z,840
2017-02-20T07:23:26.032Z,796
2017-02-20T07:24:25.618Z,828
2017-02-20T07:25:25.975Z,880
2017-02-20T07:26:25.944Z,920
2017-02-20T07:27:25.569Z,1000
2017-02-20T07:28:25.906Z,960
2017-02-20T07:29:25.498Z,972
2017-02-20T07:30:25.855Z,860
2017-02-20T07:31:25.830Z,908
2017-02-20T07:32:25.832Z,1052
2017-02-20T07:33:25.779Z,1024
2017-02-20T07:34:25.794Z,1164
2017-02-20T07:35:24.983Z,1004
2017-02-20T07:36:25.712Z,1216
2017-02-20T07:37:25.710Z,1248
2017-02-20T07:38:25.281Z,1164
2017-02-20T07:39:25.654Z,1056
2017-02-20T07:40:25.618Z,1248
2017-02-20T07:41:25.642Z,1228
2017-02-20T07:42:24.799Z,1316
2017-02-20T07:43:25.543Z,1544
2017-02-20T07:44:25.540Z,1572
2017-02-20T07:45:24.780Z,1352
2017-02-20T07:46:25.145Z,1268
2017-02-20T07:47:25.470Z,1304
2017-02-20T07:48:25.423Z,1584
2017-02-20T07:49:25.088Z,1556
2017-02-20T07:50:25.457Z,1440
2017-02-20T07:51:25.437Z,1532
2017-02-20T07:52:25.332Z,1268
2017-02-20T07:53:25.337Z,1192
2017-02-20T07:54:24.902Z,1216
2017-02-20T07:55:25.265Z,1268
2017-02-20T07:56:24.483Z,1316
2017-02-20T07:57:25.231Z,1456
2017-02-20T07:58:25.199Z,1700
2017-02-20T07:59:25.201Z,1656
2017-02-20T08:00:24.780Z,1496
2017-02-20T08:01:24.792Z,1388
2017-02-20T08:02:25.101Z,1180
2017-02-20T08:03:25.132Z,1492
2017-02-20T08:04:25.058Z,1320
2017-02-20T08:05:24.650Z,1284
2017-02-20T08:06:24.639Z,1468
2017-02-20T08:07:24.986Z,1460
2017-02-20T08:08:24.589Z,1616
2017-02-20T08:09:24.942Z,1872
2017-02-20T08:10:24.915Z,1680
2017-02-20T08:11:24.892Z,1536
2017-02-20T08:12:24.868Z,1604
2017-02-20T08:13:24.108Z,1676
2017-02-20T08:14:24.824Z,1408
2017-02-20T08:15:24.409Z,1664
2017-02-20T08:16:24.390Z,1596
2017-02-20T08:17:24.756Z,1432
2017-02-20T08:18:24.736Z,1440
2017-02-20T08:19:24.720Z,1660
2017-02-20T08:20:24.288Z,1696
2017-02-20T08:21:23.946Z,1484
2017-02-20T08:22:24.250Z,1396
2017-02-20T08:23:23.848Z,1588
2017-02-20T08:24:24.580Z,1580
2017-02-20T08:25:24.182Z,1680
2017-02-20T08:26:26.094Z,1560
2017-02-20T08:27:24.737Z,1732
2017-02-20T08:28:24.129Z,1580
2017-02-20T08:29:24.515Z,2084
2017-02-20T08:30:24.441Z,1892
2017-02-20T08:31:24.460Z,1900
2017-02-20T08:32:24.417Z,1960
2017-02-20T08:33:23.985Z,2000
2017-02-20T08:34:23.982Z,1768
2017-02-20T08:35:24.325Z,1640
2017-02-20T08:36:24.296Z,1776
2017-02-20T08:37:24.147Z,1772
2017-02-20T08:38:23.907Z,1688
2017-02-20T08:39:23.855Z,1512
2017-02-20T08:40:23.823Z,1540
2017-02-20T08:41:24.186Z,1660
2017-02-20T08:42:24.176Z,1560
2017-02-20T08:43:24.158Z,1496
2017-02-20T08:44:23.725Z,1556
2017-02-20T08:45:23.705Z,1436
2017-02-20T08:46:23.708Z,1284
2017-02-20T08:47:24.039Z,1296
2017-02-20T08:48:24.055Z,1368
2017-02-20T08:49:23.994Z,1588
2017-02-20T08:50:23.587Z,1552
2017-02-20T08:51:23.946Z,1492
2017-02-20T08:52:23.945Z,1576
2017-02-20T08:53:23.538Z,1676
2017-02-20T08:54:23.501Z,1780
2017-02-20T08:55:23.118Z,2208
2017-02-20T08:56:23.847Z,2000
2017-02-20T08:57:23.691Z,1888
2017-02-20T08:58:23.421Z,1688
2017-02-20T08:59:23.772Z,1796
2017-02-20T09:00:23.734Z,1872
2017-02-20T09:01:23.335Z,1708
2017-02-20T09:02:23.317Z,1940
2017-02-20T09:03:23.686Z,1620
2017-02-20T09:04:23.646Z,1952
2017-02-20T09:05:23.647Z,1972
2017-02-20T09:06:23.629Z,2084
2017-02-20T09:07:23.201Z,2152
2017-02-20T09:08:23.453Z,2192
2017-02-20T09:09:23.528Z,2280
2017-02-20T09:10:23.523Z,2328
2017-02-20T09:11:23.851Z,2164
2017-02-20T09:12:23.473Z,2024
2017-02-20T09:13:23.450Z,1908
2017-02-20T09:14:23.435Z,1688
2017-02-20T09:15:23.794Z,1736
2017-02-20T09:16:23.392Z,1668
2017-02-20T09:17:23.350Z,1720
2017-02-20T09:18:22.954Z,1600
2017-02-20T09:19:23.799Z,1692
2017-02-20T09:20:23.387Z,1800
2017-02-20T09:21:22.875Z,1864
2017-02-20T09:22:23.230Z,2008
2017-02-20T09:23:23.211Z,2132
2017-02-20T09:24:23.191Z,2392
2017-02-20T09:25:23.157Z,2512
2017-02-20T09:26:23.140Z,2892
2017-02-20T09:27:22.724Z,2620
2017-02-20T09:28:22.711Z,2716
2017-02-20T09:29:22.691Z,2848
2017-02-20T09:30:23.095Z,2552
2017-02-20T09:31:22.712Z,2556
2017-02-20T09:32:22.618Z,2560
2017-02-20T09:33:22.981Z,2856
2017-02-20T09:34:22.563Z,3180
2017-02-20T09:35:22.538Z,2856
2017-02-20T09:36:22.961Z,2872
2017-02-20T09:37:22.896Z,2664
2017-02-20T09:38:22.488Z,2848
2017-02-20T09:39:22.843Z,2632
2017-02-20T09:40:22.828Z,2776
2017-02-20T09:41:22.408Z,2548
2017-02-20T09:42:22.793Z,2608
2017-02-20T09:43:22.374Z,2504
2017-02-20T09:44:22.716Z,2980
2017-02-20T09:45:22.698Z,2948
2017-02-20T09:46:22.352Z,2492
2017-02-20T09:47:22.654Z,2772
2017-02-20T09:48:22.655Z,2284
2017-02-20T09:49:22.633Z,2628
2017-02-20T09:50:22.596Z,2076
2017-02-20T09:51:22.178Z,2256
2017-02-20T09:52:22.143Z,2244
2017-02-20T09:53:22.523Z,2264
2017-02-20T09:54:22.101Z,2220
2017-02-20T09:55:22.113Z,2368
2017-02-20T09:56:22.110Z,2672
2017-02-20T09:57:21.653Z,2560
2017-02-20T09:58:22.003Z,2932
2017-02-20T09:59:22.363Z,3284
2017-02-20T10:00:21.969Z,3580
2017-02-20T10:01:22.342Z,3388
2017-02-20T10:02:21.916Z,3608
2017-02-20T10:03:22.332Z,3872
2017-02-20T10:04:22.259Z,3852
2017-02-20T10:05:22.232Z,4028
2017-02-20T10:06:22.206Z,3248
2017-02-20T10:07:21.801Z,3352
2017-02-20T10:08:22.208Z,3108
2017-02-20T10:09:21.753Z,2968
2017-02-20T10:10:21.736Z,2580
2017-02-20T10:11:22.094Z,3320
2017-02-20T10:12:21.313Z,3288
2017-02-20T10:13:22.046Z,3020
2017-02-20T10:14:22.255Z,3524
2017-02-20T10:15:21.624Z,3152
2017-02-20T10:16:21.984Z,3440
2017-02-20T10:17:21.579Z,2916
2017-02-20T10:18:21.229Z,3536
2017-02-20T10:19:21.986Z,3296
2017-02-20T10:20:21.511Z,3288
2017-02-20T10:21:21.863Z,3508
2017-02-20T10:22:21.854Z,3724
2017-02-20T10:23:21.839Z,3604
2017-02-20T10:24:21.790Z,3312
2017-02-20T10:25:21.381Z,3444
2017-02-20T10:26:21.371Z,3512
2017-02-20T10:27:21.740Z,3508
2017-02-20T10:28:21.333Z,3380
2017-02-20T10:29:21.700Z,3584
2017-02-20T10:30:21.650Z,3640
2017-02-20T10:31:21.256Z,3892
2017-02-20T10:32:21.238Z,4032
2017-02-20T10:33:21.217Z,3760
2017-02-20T10:34:21.189Z,3052
2017-02-20T10:35:21.573Z,3080
2017-02-20T10:36:21.773Z,2592
2017-02-20T10:37:21.514Z,2236
2017-02-20T10:38:21.093Z,2088
2017-02-20T10:39:21.075Z,2084
2017-02-20T10:40:21.429Z,2676
2017-02-20T10:41:21.414Z,2896
2017-02-20T10:42:21.385Z,3480
2017-02-20T10:43:20.981Z,4440
2017-02-20T10:44:21.360Z,5260
2017-02-20T10:45:20.959Z,4896
2017-02-20T10:46:20.911Z,4632
2017-02-20T10:47:21.291Z,4440
2017-02-20T10:48:21.251Z,4096
2017-02-20T10:49:21.217Z,3984
2017-02-20T10:50:21.201Z,3428
2017-02-20T10:51:20.657Z,3332
2017-02-20T10:52:21.160Z,3020
2017-02-20T10:53:21.189Z,2808
2017-02-20T10:54:21.110Z,3156
2017-02-20T10:55:21.786Z,2752
2017-02-20T10:56:20.731Z,2460
2017-02-20T10:57:21.060Z,2472
2017-02-20T10:58:21.010Z,2556
2017-02-20T10:59:21.004Z,2440
2017-02-20T11:00:20.600Z,3368
2017-02-20T11:01:21.007Z,3512
2017-02-20T11:02:20.922Z,4344
2017-02-20T11:03:20.594Z,3800
2017-02-20T11:04:20.507Z,3764
2017-02-20T11:05:20.492Z,3936
2017-02-20T11:06:20.469Z,3928
2017-02-20T11:07:20.818Z,3660
2017-02-20T11:08:20.801Z,3996
2017-02-20T11:09:20.795Z,4280
2017-02-20T11:10:20.359Z,3816
2017-02-20T11:11:20.744Z,3732
2017-02-20T11:12:20.705Z,4716
2017-02-20T11:13:20.284Z,4156
2017-02-20T11:14:20.275Z,4080
2017-02-20T11:15:20.243Z,3604
2017-02-20T11:16:20.616Z,3428
2017-02-20T11:17:20.605Z,4080
2017-02-20T11:18:20.566Z,4040
2017-02-20T11:19:20.545Z,4244
2017-02-20T11:20:20.186Z,3892
2017-02-20T11:21:20.475Z,3772
2017-02-20T11:22:20.475Z,3744
2017-02-20T11:23:20.641Z,3840
2017-02-20T11:24:20.445Z,3716
2017-02-20T11:25:20.388Z,3836
2017-02-20T11:26:20.372Z,4316
2017-02-20T11:27:19.977Z,4092
2017-02-20T11:28:20.330Z,4368
2017-02-20T11:29:20.331Z,4668
2017-02-20T11:30:20.354Z,4140
2017-02-20T11:31:20.268Z,4116
2017-02-20T11:32:19.857Z,3840
2017-02-20T11:33:20.210Z,3496
2017-02-20T11:34:20.197Z,3444
2017-02-20T11:35:19.821Z,3296
2017-02-20T11:36:19.378Z,3316
2017-02-20T11:37:20.141Z,4068
2017-02-20T11:38:19.716Z,3520
2017-02-20T11:39:20.131Z,3692
2017-02-20T11:40:20.057Z,3732
2017-02-20T11:41:19.644Z,4464
2017-02-20T11:42:19.255Z,3932
2017-02-20T11:43:19.986Z,3948
2017-02-20T11:44:19.976Z,4016
2017-02-20T11:45:19.936Z,3924
2017-02-20T11:46:19.917Z,3136
2017-02-20T11:47:19.906Z,3716
2017-02-20T11:48:19.492Z,4196
2017-02-20T11:49:19.473Z,3980
2017-02-20T11:50:19.825Z,4072
2017-02-20T11:51:19.435Z,4048
2017-02-20T11:52:19.415Z,4028
2017-02-20T11:53:19.856Z,4772
2017-02-20T11:54:19.736Z,3800
2017-02-20T11:55:19.728Z,5172
2017-02-20T11:56:19.692Z,4544
2017-02-20T11:57:19.671Z,4156
2017-02-20T11:58:19.662Z,4132
2017-02-20T11:59:19.619Z,5056
2017-02-20T12:00:19.239Z,5488
2017-02-20T12:01:19.618Z,4816
2017-02-20T12:02:19.562Z,4236
2017-02-20T12:03:19.524Z,4708
2017-02-20T12:04:19.146Z,4984
2017-02-20T12:05:19.122Z,4372
2017-02-20T12:06:19.488Z,5744
2017-02-20T12:07:19.077Z,5488
2017-02-20T12:08:19.424Z,5840
2017-02-20T12:09:18.630Z,4884
2017-02-20T12:10:19.390Z,4552
2017-02-20T12:11:18.590Z,4856
2017-02-20T12:12:19.335Z,5284
2017-02-20T12:13:19.327Z,5608
2017-02-20T12:14:18.915Z,5400
2017-02-20T12:15:18.880Z,4568
2017-02-20T12:16:19.253Z,4592
2017-02-20T12:17:18.830Z,6064
2017-02-20T12:18:18.576Z,5936
2017-02-20T12:19:19.178Z,5500
2017-02-20T12:20:18.759Z,5068
2017-02-20T12:21:19.187Z,5408
2017-02-20T12:22:19.138Z,6188
2017-02-20T12:23:19.130Z,7672
2017-02-20T12:24:19.072Z,6424
2017-02-20T12:25:19.053Z,5760
2017-02-20T12:26:19.314Z,4888
2017-02-20T12:27:19.059Z,5584
2017-02-20T12:28:18.213Z,4848
2017-02-20T12:29:18.949Z,5368
2017-02-20T12:30:18.553Z,5240
2017-02-20T12:31:18.933Z,4372
2017-02-20T12:32:18.905Z,4052
2017-02-20T12:33:18.578Z,3840
2017-02-20T12:34:18.443Z,3628
2017-02-20T12:35:18.436Z,3888
2017-02-20T12:36:18.404Z,4036
2017-02-20T12:37:18.786Z,3584
2017-02-20T12:38:18.778Z,3592
2017-02-20T12:39:18.354Z,3136
2017-02-20T12:40:19.505Z,3512
2017-02-20T12:41:18.300Z,3772
2017-02-20T12:42:18.298Z,3140
2017-02-20T12:43:18.753Z,3948
2017-02-20T12:44:18.236Z,3820
2017-02-20T12:45:18.236Z,3724
2017-02-20T12:46:18.632Z,3420
2017-02-20T12:47:18.357Z,3764
2017-02-20T12:48:18.129Z,4716
2017-02-20T12:49:18.754Z,3752
2017-02-20T12:50:18.557Z,3860
2017-02-20T12:51:18.518Z,4288
2017-02-20T12:52:20.373Z,4684
2017-02-20T12:53:18.466Z,5312
2017-02-20T12:54:18.441Z,4456
2017-02-20T12:55:17.980Z,3864
2017-02-20T12:56:18.014Z,3908
2017-02-20T12:57:17.947Z,4392
2017-02-20T12:58:18.293Z,5140
2017-02-20T12:59:18.272Z,4960
2017-02-20T13:00:18.255Z,4700
2017-02-20T13:01:18.222Z,5464
2017-02-20T13:02:18.239Z,4628
2017-02-20T13:03:18.211Z,5156
2017-02-20T13:04:18.164Z,5316
2017-02-20T13:05:17.769Z,4944
2017-02-20T13:06:18.135Z,4728
2017-02-20T13:07:18.115Z,4968
2017-02-20T13:08:17.685Z,4372
2017-02-20T13:09:18.050Z,3920
2017-02-20T13:10:18.037Z,3844
2017-02-20T13:11:17.631Z,3988
2017-02-20T13:12:17.968Z,3764
2017-02-20T13:13:17.951Z,3676
2017-02-20T13:14:17.936Z,3584
2017-02-20T13:15:17.920Z,3996
2017-02-20T13:16:17.979Z,3688
2017-02-20T13:17:17.856Z,3020
2017-02-20T13:18:17.895Z,3164
2017-02-20T13:19:17.429Z,3592
2017-02-20T13:20:17.831Z,3000
2017-02-20T13:21:17.774Z,3176
2017-02-20T13:22:17.824Z,3504
2017-02-20T13:23:17.731Z,3240
2017-02-20T13:24:17.746Z,3680
2017-02-20T13:25:17.733Z,3296
2017-02-20T13:26:17.288Z,3072
2017-02-20T13:27:17.634Z,3636
2017-02-20T13:28:18.214Z,3376
2017-02-20T13:29:17.206Z,2960
2017-02-20T13:30:17.232Z,2916
2017-02-20T13:31:17.156Z,2700
2017-02-20T13:32:17.532Z,2956
2017-02-20T13:33:17.515Z,3616
2017-02-20T13:34:17.480Z,4472
2017-02-20T13:35:17.452Z,4336
2017-02-20T13:36:16.681Z,4564
2017-02-20T13:37:17.466Z,4464
2017-02-20T13:38:16.650Z,4340
2017-02-20T13:39:16.615Z,3316
2017-02-20T13:40:16.972Z,3680
2017-02-20T13:41:17.337Z,3388
2017-02-20T13:42:17.292Z,3572
2017-02-20T13:43:17.277Z,3508
2017-02-20T13:44:16.945Z,4012
2017-02-20T13:45:17.224Z,3580
2017-02-20T13:46:17.217Z,3612
2017-02-20T13:47:17.187Z,3224
2017-02-20T13:48:17.165Z,3148
2017-02-20T13:49:17.146Z,2780
2017-02-20T13:50:16.746Z,2800
2017-02-20T13:51:16.715Z,2616
2017-02-20T13:52:16.322Z,2804
2017-02-20T13:53:17.055Z,2552
2017-02-20T13:54:17.053Z,2540
2017-02-20T13:55:17.010Z,2412
2017-02-20T13:56:16.604Z,2492
2017-02-20T13:57:16.973Z,2468
2017-02-20T13:58:16.987Z,2372
2017-02-20T13:59:16.947Z,2740